»·PEaware :: N52WB KPDX-KEGE

N52WB :: KPDX-KEGE

FLIGHT INFORMATION

Flight Status: Arrived
Operator: Privately registered:
United States
More flights under this callsign
Pilot: Joe L. (24029)
Aircraft: DASSAULT AVIATION FALCON 50
(FA50)
More flights by this aircraft type
Origin: KPDX Portland Intl
United States
Destination: KEGE Eagle Co Regl
United States
More flights between these airports :: More routes between these airports
Route: +WHAMY4 IMB J15 TCH J173 EKR RLG
File this flight plan on PilotEdge
Remarks:
Altitude:
(Current/Filed)
39,000ft
Speed:
(Current/Filed)
460kts
Departed: 24-Mar-19 09:59 AM
Arrived: 24-Mar-19 12:05 PM
Distance/Time
Traveled:
777nm/2:05
Distance/Time
To Go:
Arrived

Flight Plot

Page will automatically refresh every two minutes.

Flight plan parsing failed; only flown route is shown


Map Options




Map Legend


Flown Route
Filed Route
Departure Airport
Arrival Airport
Navaid (VOR, NDB)
Fix

Horizontal Profiles

Position Reports

Time Latitude Longitude Heading Altitude Ground
Speed
24-Mar-19 09:27 45.587685 -122.584198 210 33ft 0kts
24-Mar-19 09:27 45.587685 -122.584198 210 33ft 0kts
24-Mar-19 09:29 45.587685 -122.584198 210 33ft 0kts
24-Mar-19 09:30 45.587685 -122.584198 210 33ft 0kts
24-Mar-19 09:30 45.587685 -122.584198 210 33ft 0kts
24-Mar-19 09:31 45.587685 -122.584198 210 33ft 0kts
24-Mar-19 09:33 45.587685 -122.584198 210 33ft 0kts
24-Mar-19 09:33 45.587685 -122.584198 210 33ft 0kts
24-Mar-19 09:34 45.587685 -122.584198 210 33ft 0kts
24-Mar-19 09:35 45.587685 -122.584198 210 33ft 0kts
24-Mar-19 09:36 45.587685 -122.584198 210 33ft 0kts
24-Mar-19 09:37 45.587685 -122.584198 210 33ft 0kts
24-Mar-19 09:38 45.587685 -122.584198 210 33ft 0kts
24-Mar-19 09:39 45.587685 -122.584198 210 33ft 0kts
24-Mar-19 09:40 45.587685 -122.584198 210 33ft 0kts
24-Mar-19 09:41 45.587685 -122.584198 210 33ft 0kts
24-Mar-19 09:42 45.587685 -122.584198 210 33ft 0kts
24-Mar-19 09:43 45.587685 -122.584198 210 33ft 0kts
24-Mar-19 09:44 45.587685 -122.584198 210 33ft 0kts
24-Mar-19 09:45 45.587684 -122.584199 210 33ft 0kts
24-Mar-19 09:46 45.587682 -122.584201 210 33ft 0kts
24-Mar-19 09:47 45.587679 -122.584203 210 33ft 0kts
24-Mar-19 09:48 45.587677 -122.584205 210 33ft 0kts
24-Mar-19 09:49 45.587701 -122.583593 31 33ft 2kts
24-Mar-19 09:50 45.588929 -122.583904 298 33ft 11kts
24-Mar-19 09:51 45.589940 -122.588703 305 33ft 12kts
24-Mar-19 09:52 45.591678 -122.593083 298 33ft 12kts
24-Mar-19 09:53 45.592938 -122.596207 299 33ft 1kts
24-Mar-19 09:54 45.593632 -122.597869 322 33ft 9kts
24-Mar-19 09:55 45.594490 -122.597453 46 33ft 0kts
24-Mar-19 09:56 45.594492 -122.597449 46 33ft 0kts
24-Mar-19 09:57 45.594890 -122.595850 118 33ft 12kts
24-Mar-19 09:58 45.578284 -122.555995 123 1101ft 172kts
24-Mar-19 09:59 45.568409 -122.480147 101 3655ft 204kts
24-Mar-19 10:00 45.554936 -122.401306 104 5888ft 210kts
24-Mar-19 10:01 45.534772 -122.319365 135 6706ft 230kts
24-Mar-19 10:02 45.479159 -122.265967 136 6983ft 254kts
24-Mar-19 10:03 45.426837 -122.197161 138 7486ft 261kts
24-Mar-19 10:04 45.370145 -122.124990 138 9361ft 274kts
24-Mar-19 10:05 45.307697 -122.045851 138 11930ft 332kts
24-Mar-19 10:06 45.246494 -121.947838 106 14960ft 342kts
24-Mar-19 10:07 45.216390 -121.826944 112 15185ft 304kts
24-Mar-19 10:08 45.187559 -121.716600 108 15588ft 302kts
24-Mar-19 10:09 45.165661 -121.632355 110 17008ft 361kts
24-Mar-19 10:10 45.130445 -121.497111 111 20677ft 371kts
24-Mar-19 10:11 45.094160 -121.357992 111 23620ft 382kts
24-Mar-19 10:12 45.056768 -121.215417 112 26137ft 390kts
24-Mar-19 10:13 45.018496 -121.070376 112 28260ft 397kts
24-Mar-19 10:14 44.979423 -120.923207 112 30078ft 403kts
24-Mar-19 10:15 44.939402 -120.773429 112 31452ft 414kts
24-Mar-19 10:16 44.898082 -120.619735 112 32864ft 422kts
24-Mar-19 10:17 44.856041 -120.464367 113 34268ft 427kts
24-Mar-19 10:18 44.812824 -120.305718 113 35691ft 436kts
24-Mar-19 10:19 44.768923 -120.145611 113 37180ft 438kts
24-Mar-19 10:20 44.724728 -119.985503 113 38513ft 440kts
24-Mar-19 10:21 44.679775 -119.823763 113 39236ft 455kts
24-Mar-19 10:22 44.631925 -119.654004 114 39238ft 476kts
24-Mar-19 10:23 44.581307 -119.481163 114 39239ft 476kts
24-Mar-19 10:24 44.531152 -119.310667 114 39238ft 472kts
24-Mar-19 10:25 44.481087 -119.141561 115 39238ft 469kts
24-Mar-19 10:26 44.430887 -118.973113 115 39238ft 468kts
24-Mar-19 10:27 44.380291 -118.804462 115 39238ft 468kts
24-Mar-19 10:28 44.329680 -118.636871 115 39238ft 468kts
24-Mar-19 10:29 44.278727 -118.469249 115 39238ft 469kts
24-Mar-19 10:30 44.227605 -118.302173 116 39236ft 470kts
24-Mar-19 10:31 44.175959 -118.134478 116 39236ft 470kts
24-Mar-19 10:32 44.124185 -117.967455 116 39236ft 471kts
24-Mar-19 10:33 44.071928 -117.799949 116 39235ft 471kts
24-Mar-19 10:34 44.019499 -117.632987 116 39224ft 471kts
24-Mar-19 10:35 43.966949 -117.466713 116 39227ft 471kts
24-Mar-19 10:36 43.913941 -117.300051 116 39230ft 472kts
24-Mar-19 10:37 43.860607 -117.133424 116 39232ft 472kts
24-Mar-19 10:38 43.807080 -116.967252 117 39232ft 473kts
24-Mar-19 10:39 43.753182 -116.800973 117 39232ft 473kts
24-Mar-19 10:40 43.699083 -116.635120 117 39232ft 473kts
24-Mar-19 10:41 43.644725 -116.469509 117 39233ft 473kts
24-Mar-19 10:42 43.590114 -116.304161 117 39233ft 473kts
24-Mar-19 10:43 43.525777 -116.147773 132 39236ft 466kts
24-Mar-19 10:44 43.442125 -116.011673 133 39240ft 466kts
24-Mar-19 10:45 43.358278 -115.875705 133 39240ft 466kts
24-Mar-19 10:46 43.274040 -115.739821 133 39239ft 467kts
24-Mar-19 10:47 43.189502 -115.604103 133 39239ft 468kts
24-Mar-19 10:48 43.104923 -115.468960 134 39237ft 468kts
24-Mar-19 10:49 43.019936 -115.333787 134 39237ft 469kts
24-Mar-19 10:50 42.934409 -115.198399 134 39235ft 470kts
24-Mar-19 10:51 42.848659 -115.063288 134 39235ft 471kts
24-Mar-19 10:52 42.762960 -114.928877 134 39235ft 471kts
24-Mar-19 10:53 42.676624 -114.794090 134 39235ft 472kts
24-Mar-19 10:54 42.590392 -114.660084 134 39235ft 472kts
24-Mar-19 10:55 42.503771 -114.526088 134 39233ft 473kts
24-Mar-19 10:56 42.417968 -114.390594 133 39233ft 474kts
24-Mar-19 10:57 42.332803 -114.254130 133 39231ft 474kts
24-Mar-19 10:58 42.247496 -114.118462 134 39229ft 475kts
24-Mar-19 10:59 42.161599 -113.982558 134 39227ft 476kts
24-Mar-19 11:00 42.075548 -113.847044 134 39226ft 476kts
24-Mar-19 11:01 41.989433 -113.712052 134 39223ft 476kts
24-Mar-19 11:02 41.902907 -113.577034 134 39223ft 476kts
24-Mar-19 11:03 41.816296 -113.442497 134 39225ft 477kts
24-Mar-19 11:04 41.729156 -113.307747 134 39228ft 477kts
24-Mar-19 11:05 41.642123 -113.173774 134 39230ft 478kts
24-Mar-19 11:06 41.554495 -113.039487 135 39231ft 479kts
24-Mar-19 11:07 41.466776 -112.905665 135 39255ft 479kts
24-Mar-19 11:08 41.378951 -112.772283 135 39255ft 480kts
24-Mar-19 11:09 41.290808 -112.639011 135 39255ft 480kts
24-Mar-19 11:10 41.202446 -112.505999 135 39255ft 479kts
24-Mar-19 11:11 41.118544 -112.380249 135 39255ft 478kts
24-Mar-19 11:12 41.030187 -112.248390 135 39256ft 477kts
24-Mar-19 11:13 40.941790 -112.117051 136 39256ft 477kts
24-Mar-19 11:14 40.857770 -111.981367 122 39263ft 485kts
24-Mar-19 11:15 40.820756 -111.808252 106 39276ft 492kts
24-Mar-19 11:17 40.789397 -111.632904 105 39265ft 492kts
24-Mar-19 11:18 40.757949 -111.456283 106 39261ft 493kts
24-Mar-19 11:19 40.726429 -111.280461 106 39240ft 493kts
24-Mar-19 11:20 40.694610 -111.104540 106 39236ft 493kts
24-Mar-19 11:21 40.662465 -110.928470 106 39205ft 494kts
24-Mar-19 11:22 40.630152 -110.753105 106 39203ft 494kts
24-Mar-19 11:23 40.597455 -110.577273 106 39185ft 494kts
24-Mar-19 11:24 40.564449 -110.401396 106 39184ft 494kts
24-Mar-19 11:25 40.531198 -110.225810 107 39184ft 494kts
24-Mar-19 11:26 40.497687 -110.050439 107 39184ft 495kts
24-Mar-19 11:27 40.463943 -109.875406 107 39183ft 494kts
24-Mar-19 11:28 40.430845 -109.705086 107 38706ft 468kts
24-Mar-19 11:29 40.398847 -109.541994 107 37901ft 455kts
24-Mar-19 11:30 40.367125 -109.381639 107 36833ft 455kts
24-Mar-19 11:31 40.335261 -109.221730 107 35625ft 452kts
24-Mar-19 11:32 40.303365 -109.062924 107 34240ft 450kts
24-Mar-19 11:33 40.271267 -108.904335 107 32843ft 448kts
24-Mar-19 11:34 40.238778 -108.745153 107 31613ft 466kts
24-Mar-19 11:35 40.206923 -108.589742 107 30224ft 400kts
24-Mar-19 11:35 40.190537 -108.475053 84 28910ft 369kts
24-Mar-19 11:37 40.218056 -108.322029 94 27261ft 361kts
24-Mar-19 11:38 40.177804 -108.205699 126 25889ft 368kts
24-Mar-19 11:38 40.128637 -108.113797 127 24734ft 367kts
24-Mar-19 11:40 40.076639 -107.978350 106 24192ft 351kts
24-Mar-19 11:41 40.064341 -107.855883 94 23104ft 342kts
24-Mar-19 11:41 40.060816 -107.753275 94 22107ft 337kts
24-Mar-19 11:42 40.056155 -107.632052 94 20905ft 333kts
24-Mar-19 11:43 40.051081 -107.506355 94 20224ft 361kts
24-Mar-19 11:44 40.045561 -107.372960 94 20219ft 372kts
24-Mar-19 11:45 40.040457 -107.252763 94 19157ft 336kts
24-Mar-19 11:46 40.035352 -107.135984 94 17942ft 316kts
24-Mar-19 11:47 40.030144 -107.019434 94 16642ft 316kts
24-Mar-19 11:48 40.025212 -106.911195 94 14827ft 285kts
24-Mar-19 11:49 40.020751 -106.815287 94 14386ft 251kts
24-Mar-19 11:50 40.015999 -106.715263 94 14399ft 288kts
24-Mar-19 11:51 40.009581 -106.618806 108 14385ft 246kts
24-Mar-19 11:52 39.970656 -106.563094 161 14394ft 207kts
24-Mar-19 11:53 39.913731 -106.548980 179 14399ft 213kts
24-Mar-19 11:54 39.852053 -106.541820 177 14106ft 233kts
24-Mar-19 11:55 39.787005 -106.534411 189 13706ft 231kts
24-Mar-19 11:56 39.729337 -106.558632 199 13005ft 208kts
24-Mar-19 11:57 39.690030 -106.595315 246 12595ft 182kts
24-Mar-19 11:58 39.679838 -106.655230 259 11319ft 167kts
24-Mar-19 11:59 39.671638 -106.712318 258 10218ft 164kts
24-Mar-19 12:00 39.662916 -106.772518 258 9093ft 167kts
24-Mar-19 12:01 39.655091 -106.822860 256 7857ft 129kts
24-Mar-19 12:02 39.647795 -106.867807 261 7177ft 119kts
24-Mar-19 12:03 39.643559 -106.908553 261 6519ft 91kts
24-Mar-19 12:04 39.641453 -106.922740 171 6519ft 0kts
24-Mar-19 12:05 39.641057 -106.921565 81 6519ft 14kts
24-Mar-19 12:06 39.641638 -106.916073 82 6519ft 17kts
24-Mar-19 12:07 39.642295 -106.909737 105 6519ft 14kts
24-Mar-19 12:08 39.641493 -106.910172 262 6519ft 0kts
24-Mar-19 12:09 39.641492 -106.910175 262 6519ft 0kts

Navigation Log

Ident Type
Flight plan parsing failed, navigation log unavailable